createdAt,value
2018-03-11T00:02:22.075Z,1.97
2018-03-11T00:04:49.679Z,2.40
2018-03-11T00:07:17.396Z,3.33
2018-03-11T00:09:45.352Z,2.07
2018-03-11T00:12:13.024Z,2.70
2018-03-11T00:14:40.685Z,3.83
2018-03-11T00:17:08.281Z,7.23
2018-03-11T00:19:36.010Z,3.87
2018-03-11T00:22:03.635Z,8.57
2018-03-11T00:24:31.215Z,4.73
2018-03-11T00:26:58.859Z,8.13
2018-03-11T00:29:26.436Z,4.53
2018-03-11T00:31:54.024Z,5.23
2018-03-11T00:34:21.719Z,2.60
2018-03-11T00:36:49.314Z,3.23
2018-03-11T00:39:17.141Z,2.80
2018-03-11T00:41:44.798Z,4.63
2018-03-11T00:44:12.393Z,2.30
2018-03-11T00:46:40.063Z,8.20
2018-03-11T00:49:08.368Z,2.27
2018-03-11T00:51:35.951Z,5.43
2018-03-11T00:54:05.411Z,2.47
2018-03-11T00:56:33.044Z,2.30
2018-03-11T00:59:00.696Z,3.23
2018-03-11T01:01:28.406Z,8.07
2018-03-11T01:03:56.049Z,4.53
2018-03-11T01:06:23.681Z,2.87
2018-03-11T01:08:51.340Z,7.70
2018-03-11T01:11:19.410Z,3.10
2018-03-11T01:13:47.049Z,4.60
2018-03-11T01:16:14.856Z,3.30
2018-03-11T01:18:42.555Z,5.37
2018-03-11T01:21:10.568Z,3.70
2018-03-11T01:23:38.162Z,6.53
2018-03-11T01:26:05.813Z,4.17
2018-03-11T01:28:33.477Z,4.50
2018-03-11T01:31:01.091Z,4.87
2018-03-11T01:33:28.797Z,3.90
2018-03-11T01:35:56.394Z,5.13
2018-03-11T01:38:24.083Z,4.97
2018-03-11T01:40:51.720Z,5.13
2018-03-11T01:43:20.026Z,5.63
2018-03-11T01:45:47.881Z,4.03
2018-03-11T01:48:15.521Z,5.03
2018-03-11T01:50:43.822Z,4.87
2018-03-11T01:53:11.761Z,4.83
2018-03-11T01:55:39.410Z,3.50
2018-03-11T01:58:07.144Z,4.50
2018-03-11T02:00:34.832Z,5.20
2018-03-11T02:03:03.164Z,4.03
2018-03-11T02:05:30.739Z,5.17
2018-03-11T02:07:58.362Z,3.60
2018-03-11T02:10:26.062Z,5.43
2018-03-11T02:12:54.984Z,8.10
2018-03-11T02:15:22.658Z,3.07
2018-03-11T02:17:50.314Z,6.17
2018-03-11T02:20:17.969Z,4.43
2018-03-11T02:22:45.577Z,4.20
2018-03-11T02:25:13.227Z,3.83
2018-03-11T02:27:40.864Z,7.47
2018-03-11T02:30:08.454Z,6.27
2018-03-11T02:32:36.093Z,5.60
2018-03-11T02:35:03.684Z,2.60
2018-03-11T02:37:31.305Z,3.40
2018-03-11T02:39:58.923Z,9.83
2018-03-11T02:42:26.576Z,4.93
2018-03-11T02:44:54.254Z,5.90
2018-03-11T02:47:21.900Z,5.70
2018-03-11T02:49:49.499Z,4.60
2018-03-11T02:52:17.138Z,3.80
2018-03-11T02:54:44.773Z,4.63
2018-03-11T02:57:12.362Z,5.80
2018-03-11T02:59:40.174Z,7.90
2018-03-11T03:02:07.849Z,6.53
2018-03-11T03:04:35.564Z,5.40
2018-03-11T03:07:03.210Z,5.93
2018-03-11T03:09:30.811Z,4.60
2018-03-11T03:11:58.462Z,6.27
2018-03-11T03:14:26.158Z,4.90
2018-03-11T03:16:53.763Z,4.23
2018-03-11T03:19:21.356Z,7.67
2018-03-11T03:21:48.998Z,4.40
2018-03-11T03:24:16.615Z,10.93
2018-03-11T03:26:44.384Z,5.50
2018-03-11T03:29:12.045Z,6.40
2018-03-11T03:31:39.776Z,4.57
2018-03-11T03:34:07.516Z,3.43
2018-03-11T03:36:35.106Z,5.90
2018-03-11T03:39:02.778Z,5.80
2018-03-11T03:41:30.358Z,3.90
2018-03-11T03:43:57.999Z,6.20
2018-03-11T03:46:25.577Z,5.40
2018-03-11T03:48:53.254Z,3.80
2018-03-11T03:51:20.889Z,4.50
2018-03-11T03:53:48.455Z,5.23
2018-03-11T03:56:16.116Z,4.07
2018-03-11T03:58:43.768Z,8.27
2018-03-11T04:01:11.359Z,4.03
2018-03-11T04:03:39.730Z,3.23
2018-03-11T04:06:07.344Z,3.13
2018-03-11T04:08:34.920Z,4.50
2018-03-11T04:11:02.537Z,4.60
2018-03-11T04:13:30.190Z,8.63
2018-03-11T04:15:57.896Z,16.90
2018-03-11T04:18:25.528Z,3.00
2018-03-11T04:20:53.171Z,5.37
2018-03-11T04:23:21.037Z,3.90
2018-03-11T04:25:48.636Z,7.50
2018-03-11T04:28:16.561Z,8.10
2018-03-11T04:30:44.191Z,13.63
2018-03-11T04:33:12.352Z,4.60
2018-03-11T04:35:40.082Z,5.23
2018-03-11T04:38:07.701Z,3.30
2018-03-11T04:40:35.367Z,7.20
2018-03-11T04:43:02.956Z,4.13
2018-03-11T04:45:30.624Z,6.47
2018-03-11T04:47:58.226Z,3.70
2018-03-11T04:50:25.887Z,6.13
2018-03-11T04:52:53.474Z,5.30
2018-03-11T04:55:21.210Z,6.27
2018-03-11T04:57:48.836Z,4.17
2018-03-11T05:00:16.468Z,6.27
2018-03-11T05:02:44.113Z,4.70
2018-03-11T05:05:11.738Z,5.03
2018-03-11T05:07:39.434Z,6.27
2018-03-11T05:10:07.137Z,6.50
2018-03-11T05:12:34.803Z,5.00
2018-03-11T05:15:02.395Z,4.60
2018-03-11T05:17:30.008Z,3.87
2018-03-11T05:19:57.646Z,4.77
2018-03-11T05:22:25.236Z,6.43
2018-03-11T05:24:52.832Z,4.33
2018-03-11T05:27:20.449Z,6.50
2018-03-11T05:29:48.092Z,5.30
2018-03-11T05:32:15.745Z,6.40
2018-03-11T05:34:43.372Z,4.90
2018-03-11T05:37:11.080Z,4.13
2018-03-11T05:39:38.679Z,8.43
2018-03-11T05:42:06.385Z,28.93
2018-03-11T05:44:34.981Z,13.13
2018-03-11T05:47:02.685Z,14.37
2018-03-11T05:49:30.314Z,10.93
2018-03-11T05:51:57.939Z,7.90
2018-03-11T05:54:25.928Z,10.57
2018-03-11T05:56:53.531Z,13.40
2018-03-11T05:59:21.151Z,24.77
2018-03-11T06:01:48.859Z,13.60
2018-03-11T06:04:16.465Z,7.37
2018-03-11T06:06:44.046Z,9.57
2018-03-11T06:09:11.695Z,6.23
2018-03-11T06:11:39.678Z,6.80
2018-03-11T06:14:07.535Z,7.00
2018-03-11T06:16:35.183Z,19.73
2018-03-11T06:19:02.840Z,9.57
2018-03-11T06:21:31.111Z,11.33
2018-03-11T06:23:58.769Z,17.10
2018-03-11T06:26:26.457Z,20.43
2018-03-11T06:28:54.137Z,18.50
2018-03-11T06:31:21.773Z,14.30
2018-03-11T06:33:49.677Z,11.80
2018-03-11T06:36:17.407Z,18.80
2018-03-11T06:38:45.736Z,20.73
2018-03-11T06:41:13.974Z,16.87
2018-03-11T06:43:41.801Z,16.80
2018-03-11T06:46:09.596Z,17.20
2018-03-11T06:48:37.287Z,23.20
2018-03-11T06:51:05.009Z,13.00
2018-03-11T06:53:32.664Z,12.47
2018-03-11T06:56:01.253Z,13.50
2018-03-11T06:58:28.847Z,17.40
2018-03-11T07:00:56.537Z,14.70
2018-03-11T07:03:24.228Z,13.43
2018-03-11T07:05:51.847Z,10.20
2018-03-11T07:08:19.486Z,12.63
2018-03-11T07:10:47.687Z,9.73
2018-03-11T07:13:15.722Z,14.40
2018-03-11T07:15:43.344Z,48.40
2018-03-11T07:18:11.278Z,29.30
2018-03-11T07:20:39.021Z,18.83
2018-03-11T07:23:06.882Z,16.10
2018-03-11T07:25:34.597Z,19.73
2018-03-11T07:28:02.416Z,18.50
2018-03-11T07:30:30.080Z,14.43
2018-03-11T07:32:58.537Z,8.27
2018-03-11T07:35:27.880Z,9.27
2018-03-11T07:37:55.737Z,12.77
2018-03-11T07:40:23.384Z,9.67
2018-03-11T07:42:51.016Z,12.23
2018-03-11T07:45:18.894Z,7.07
2018-03-11T07:47:46.671Z,7.20
2018-03-11T07:50:14.654Z,9.80
2018-03-11T07:52:42.259Z,9.30
2018-03-11T07:55:09.881Z,9.70
2018-03-11T07:57:37.486Z,6.70
2018-03-11T08:00:05.122Z,7.90
2018-03-11T08:02:32.704Z,6.93
2018-03-11T08:05:00.327Z,8.43
2018-03-11T08:07:28.293Z,11.70
2018-03-11T08:09:55.953Z,8.33
2018-03-11T08:12:23.544Z,8.10
2018-03-11T08:14:51.264Z,5.07
2018-03-11T08:17:19.676Z,11.40
2018-03-11T08:19:47.419Z,6.70
2018-03-11T08:22:15.082Z,6.77
2018-03-11T08:24:42.956Z,13.80
2018-03-11T08:27:10.616Z,8.20
2018-03-11T08:29:38.895Z,9.70
2018-03-11T08:32:06.573Z,13.40
2018-03-11T08:34:34.427Z,10.50
2018-03-11T08:37:02.068Z,5.77
2018-03-11T08:39:29.948Z,7.93
2018-03-11T08:41:58.755Z,20.93
2018-03-11T08:44:26.504Z,6.97
2018-03-11T08:46:55.395Z,14.57
2018-03-11T08:49:23.033Z,5.33
2018-03-11T08:51:50.700Z,12.40
2018-03-11T08:54:18.577Z,10.00
2018-03-11T08:56:48.534Z,13.30
2018-03-11T08:59:16.971Z,10.23
2018-03-11T09:01:45.161Z,9.13
2018-03-11T09:04:13.818Z,12.97
2018-03-11T09:06:41.508Z,7.53
2018-03-11T09:09:09.159Z,8.83
2018-03-11T09:11:37.016Z,11.37
2018-03-11T09:14:05.208Z,6.57
2018-03-11T09:16:33.176Z,9.10
2018-03-11T09:19:00.940Z,12.10
2018-03-11T09:21:28.585Z,25.03
2018-03-11T09:23:56.715Z,6.40
2018-03-11T09:26:24.448Z,9.10
2018-03-11T09:28:52.531Z,10.73
2018-03-11T09:31:20.182Z,10.23
2018-03-11T09:33:47.952Z,10.20
2018-03-11T09:36:15.643Z,14.93
2018-03-11T09:38:43.240Z,11.50
2018-03-11T09:41:10.927Z,7.40
2018-03-11T09:43:38.684Z,7.00
2018-03-11T09:46:06.524Z,16.47
2018-03-11T09:48:34.801Z,7.23
2018-03-11T09:51:02.509Z,14.13
2018-03-11T09:53:30.565Z,11.70
2018-03-11T09:55:58.248Z,6.77
2018-03-11T09:58:26.062Z,8.77
2018-03-11T10:00:54.139Z,6.63
2018-03-11T10:03:21.939Z,11.97
2018-03-11T10:05:49.873Z,11.77
2018-03-11T10:08:18.816Z,7.93
2018-03-11T10:10:46.565Z,10.57
2018-03-11T10:13:15.156Z,8.73
2018-03-11T10:15:43.132Z,8.83
2018-03-11T10:18:11.924Z,7.07
2018-03-11T10:20:39.773Z,15.13
2018-03-11T10:23:08.447Z,6.80
2018-03-11T10:25:36.496Z,10.70
2018-03-11T10:28:06.005Z,18.57
2018-03-11T10:30:33.618Z,10.43
2018-03-11T10:33:02.183Z,13.57
2018-03-11T10:35:30.264Z,12.10
2018-03-11T10:37:58.007Z,10.73
2018-03-11T10:40:25.605Z,8.70
2018-03-11T10:42:54.080Z,12.00
2018-03-11T10:45:21.936Z,11.23
2018-03-11T10:47:49.587Z,15.07
2018-03-11T10:50:17.309Z,9.10
2018-03-11T10:52:45.325Z,11.60
2018-03-11T10:55:12.990Z,7.00
2018-03-11T10:57:40.984Z,14.97
2018-03-11T11:00:09.232Z,12.10
2018-03-11T11:02:37.103Z,59.63
2018-03-11T11:05:04.953Z,53.03
2018-03-11T11:07:32.776Z,26.87
2018-03-11T11:10:00.845Z,24.70
2018-03-11T11:12:28.567Z,22.07
2018-03-11T11:14:56.456Z,12.10
2018-03-11T11:17:24.201Z,17.57
2018-03-11T11:19:52.708Z,9.80
2018-03-11T11:22:20.411Z,9.97
2018-03-11T11:24:48.823Z,11.13
2018-03-11T11:27:16.802Z,17.27
2018-03-11T11:29:44.563Z,16.50
2018-03-11T11:32:12.844Z,20.23
2018-03-11T11:34:40.886Z,15.10
2018-03-11T11:37:08.761Z,14.80
2018-03-11T11:39:37.050Z,13.53
2018-03-11T11:42:05.738Z,10.70
2018-03-11T11:44:33.619Z,10.83
2018-03-11T11:47:01.267Z,13.10
2018-03-11T11:49:29.143Z,17.17
2018-03-11T11:51:57.413Z,13.63
2018-03-11T11:54:25.410Z,13.23
2018-03-11T11:56:53.300Z,14.50
2018-03-11T11:59:21.292Z,19.67
2018-03-11T12:01:49.440Z,8.10
2018-03-11T12:04:17.746Z,10.40
2018-03-11T12:06:45.420Z,12.97
2018-03-11T12:11:46.885Z,12.43
2018-03-11T12:14:15.308Z,12.07
2018-03-11T12:16:43.373Z,11.53
2018-03-11T12:19:11.009Z,15.77
2018-03-11T12:21:38.780Z,11.73
2018-03-11T12:24:06.518Z,12.47
2018-03-11T12:26:34.623Z,20.17
2018-03-11T12:29:02.223Z,23.17
2018-03-11T12:31:30.041Z,14.40
2018-03-11T12:33:57.930Z,10.50
2018-03-11T12:36:26.050Z,18.57
2018-03-11T12:38:54.054Z,14.70
2018-03-11T12:41:21.725Z,20.53
2018-03-11T12:43:49.628Z,16.33
2018-03-11T12:46:17.343Z,14.10
2018-03-11T12:48:46.241Z,22.77
2018-03-11T12:51:14.003Z,15.80
2018-03-11T12:53:42.920Z,11.87
2018-03-11T12:56:10.741Z,16.23
2018-03-11T12:58:38.617Z,17.23
2018-03-11T13:01:06.250Z,13.90
2018-03-11T13:03:34.045Z,13.23
2018-03-11T13:06:01.730Z,10.37
2018-03-11T13:08:29.748Z,3.13
2018-03-11T13:10:58.074Z,38.10
2018-03-11T13:13:25.819Z,6.13
2018-03-11T13:15:54.770Z,2.97
2018-03-11T13:18:22.799Z,4.20
2018-03-11T13:21:09.531Z,15.33
2018-03-11T13:23:37.170Z,9.80
2018-03-11T13:26:05.492Z,12.43
2018-03-11T13:28:44.841Z,15.20
2018-03-11T13:31:12.727Z,15.67
2018-03-11T13:33:52.210Z,10.90
2018-03-11T13:36:19.905Z,20.43
2018-03-11T13:38:59.237Z,19.23
2018-03-11T13:41:26.953Z,10.17
2018-03-11T13:43:54.719Z,15.63
2018-03-11T13:46:33.957Z,7.93
2018-03-11T13:49:01.792Z,12.30
2018-03-11T13:51:41.365Z,21.07
2018-03-11T13:54:09.362Z,27.83
2018-03-11T13:56:37.395Z,12.87
2018-03-11T13:59:05.750Z,11.33
2018-03-11T14:01:33.442Z,10.33
2018-03-11T14:04:01.508Z,18.10
2018-03-11T14:06:29.347Z,13.50
2018-03-11T14:08:57.152Z,8.10
2018-03-11T14:11:24.904Z,4.13
2018-03-11T14:13:52.797Z,4.80
2018-03-11T14:16:20.550Z,4.03
2018-03-11T14:18:48.358Z,2.37
2018-03-11T14:21:17.396Z,1.90
2018-03-11T14:23:45.031Z,2.00
2018-03-11T14:26:13.774Z,1.33
2018-03-11T14:28:41.849Z,1.27
2018-03-11T14:31:09.832Z,3.97
2018-03-11T14:33:37.557Z,3.07
2018-03-11T14:36:05.502Z,7.90
2018-03-11T14:38:33.293Z,7.27
2018-03-11T14:41:01.518Z,12.23
2018-03-11T14:43:30.890Z,9.43
2018-03-11T14:45:59.001Z,7.03
2018-03-11T14:48:27.192Z,17.70
2018-03-11T14:50:55.082Z,1.83
2018-03-11T14:53:23.983Z,12.70
2018-03-11T14:55:51.967Z,3.60
2018-03-11T14:58:19.930Z,1.97
2018-03-11T15:00:47.912Z,1.10
2018-03-11T15:03:15.636Z,1.63
2018-03-11T15:05:43.463Z,3.70
2018-03-11T15:08:11.285Z,2.33
2018-03-11T15:10:39.322Z,2.17
2018-03-11T15:13:07.131Z,2.50
2018-03-11T15:15:35.578Z,15.90
2018-03-11T15:18:03.451Z,7.40
2018-03-11T15:20:31.537Z,1.90
2018-03-11T15:23:00.013Z,1.37
2018-03-11T15:25:27.931Z,4.57
2018-03-11T15:27:55.964Z,7.83
2018-03-11T15:30:23.724Z,6.33
2018-03-11T15:32:51.796Z,4.10
2018-03-11T15:35:19.806Z,3.30
2018-03-11T15:37:49.162Z,0.80
2018-03-11T15:40:19.286Z,1.50
2018-03-11T15:42:48.274Z,1.47
2018-03-11T15:45:17.491Z,1.67
2018-03-11T15:47:46.058Z,2.80
2018-03-11T15:50:15.619Z,1.77
2018-03-11T15:52:44.565Z,1.53
2018-03-11T15:55:12.638Z,0.80
2018-03-11T15:57:41.725Z,0.97
2018-03-11T16:00:09.593Z,0.90
2018-03-11T16:02:37.574Z,0.50
2018-03-11T16:05:06.400Z,3.93
2018-03-11T16:07:34.443Z,1.23
2018-03-11T16:10:02.297Z,1.73
2018-03-11T16:12:30.276Z,1.63
2018-03-11T16:15:00.431Z,0.90
2018-03-11T16:17:28.465Z,0.97
2018-03-11T16:19:56.169Z,0.60
2018-03-11T16:22:23.985Z,3.63
2018-03-11T16:24:52.878Z,1.03
2018-03-11T16:27:20.759Z,2.20
2018-03-11T16:29:48.798Z,3.70
2018-03-11T16:32:17.137Z,0.57
2018-03-11T16:34:45.004Z,4.33
2018-03-11T16:37:13.330Z,1.53
2018-03-11T16:39:42.537Z,1.87
2018-03-11T16:42:13.378Z,1.00
2018-03-11T16:44:41.448Z,1.10
2018-03-11T16:47:09.642Z,0.50
2018-03-11T16:49:37.635Z,0.30
2018-03-11T16:52:07.643Z,1.07
2018-03-11T16:54:35.759Z,7.73
2018-03-11T16:57:04.238Z,0.33
2018-03-11T16:59:32.010Z,1.83
2018-03-11T17:02:00.023Z,1.20
2018-03-11T17:04:27.753Z,0.50
2018-03-11T17:06:55.879Z,1.27
2018-03-11T17:09:23.602Z,0.73
2018-03-11T17:11:53.010Z,1.93
2018-03-11T17:14:21.233Z,16.17
2018-03-11T17:16:50.178Z,0.63
2018-03-11T17:19:18.692Z,0.50
2018-03-11T17:21:46.724Z,1.03
2018-03-11T17:24:14.787Z,0.40
2018-03-11T17:26:43.796Z,1.50
2018-03-11T17:29:11.880Z,0.80
2018-03-11T17:31:39.834Z,2.10
2018-03-11T17:34:07.699Z,1.17
2018-03-11T17:36:35.666Z,1.53
2018-03-11T17:39:03.841Z,1.00
2018-03-11T17:41:32.193Z,0.50
2018-03-11T17:43:59.979Z,7.00
2018-03-11T17:46:28.262Z,1.63
2018-03-11T17:48:55.909Z,0.67
2018-03-11T17:51:24.978Z,0.30
2018-03-11T17:53:52.580Z,0.40
2018-03-11T17:56:20.638Z,1.33
2018-03-11T17:58:48.462Z,0.50
2018-03-11T18:01:17.259Z,1.40
2018-03-11T18:03:45.270Z,11.30
2018-03-11T18:06:14.311Z,0.63
2018-03-11T18:08:42.123Z,1.27
2018-03-11T18:11:09.990Z,0.60
2018-03-11T18:13:38.752Z,2.63
2018-03-11T18:16:07.611Z,0.97
2018-03-11T18:18:36.155Z,0.50
2018-03-11T18:21:04.531Z,1.80
2018-03-11T18:23:32.757Z,3.17
2018-03-11T18:26:00.778Z,1.33
2018-03-11T18:28:29.465Z,0.67
2018-03-11T18:30:57.550Z,0.40
2018-03-11T18:33:25.540Z,0.67
2018-03-11T18:35:53.378Z,1.07
2018-03-11T18:38:21.813Z,0.30
2018-03-11T18:40:49.951Z,0.63
2018-03-11T18:43:18.907Z,3.57
2018-03-11T18:45:46.573Z,1.30
2018-03-11T18:48:14.850Z,1.33
2018-03-11T18:50:43.400Z,0.60
2018-03-11T18:53:17.672Z,0.53
2018-03-11T18:55:46.223Z,0.30
2018-03-11T18:58:14.009Z,2.23
2018-03-11T19:00:42.284Z,0.50
2018-03-11T19:03:10.747Z,0.80
2018-03-11T19:05:38.528Z,0.60
2018-03-11T19:08:06.621Z,0.57
2018-03-11T19:10:34.281Z,0.70
2018-03-11T19:13:02.966Z,0.63
2018-03-11T19:15:32.689Z,1.37
2018-03-11T19:18:00.752Z,5.20
2018-03-11T19:20:28.510Z,0.30
2018-03-11T19:22:56.175Z,0.90
2018-03-11T19:25:24.032Z,0.73
2018-03-11T19:27:51.702Z,1.10
2018-03-11T19:30:19.823Z,0.60
2018-03-11T19:32:47.786Z,0.50
2018-03-11T19:35:16.006Z,0.67
2018-03-11T19:37:44.818Z,0.73
2018-03-11T19:40:13.297Z,0.53
2018-03-11T19:42:42.742Z,0.50
2018-03-11T19:45:10.952Z,0.70
2018-03-11T19:47:39.009Z,0.37
2018-03-11T19:50:07.092Z,0.50
2018-03-11T19:52:34.892Z,1.30
2018-03-11T19:55:02.998Z,0.40
2018-03-11T19:57:31.678Z,0.53
2018-03-11T19:59:59.409Z,0.50
2018-03-11T20:02:28.826Z,1.00
2018-03-11T20:04:58.025Z,0.60
2018-03-11T20:07:26.254Z,1.27
2018-03-11T20:09:54.043Z,0.57
2018-03-11T20:12:21.724Z,6.70
2018-03-11T20:14:49.684Z,0.40
2018-03-11T20:17:17.537Z,3.50
2018-03-11T20:19:45.703Z,1.60
2018-03-11T20:22:14.506Z,3.43
2018-03-11T20:24:42.448Z,1.20
2018-03-11T20:27:10.962Z,0.63
2018-03-11T20:29:39.007Z,0.63
2018-03-11T20:32:07.144Z,0.50
2018-03-11T20:34:36.612Z,4.90
2018-03-11T20:37:06.084Z,0.47
2018-03-11T20:39:35.106Z,0.93
2018-03-11T20:42:03.120Z,1.03
2018-03-11T20:44:32.703Z,0.80
2018-03-11T20:47:01.634Z,3.03
2018-03-11T20:49:29.588Z,0.40
2018-03-11T20:51:59.008Z,0.57
2018-03-11T20:54:27.203Z,0.40
2018-03-11T20:56:54.881Z,0.40
2018-03-11T20:59:23.371Z,1.23
2018-03-11T21:01:51.959Z,1.53
2018-03-11T21:04:21.618Z,0.43
2018-03-11T21:06:49.536Z,0.30
2018-03-11T21:09:17.398Z,0.40
2018-03-11T21:11:45.269Z,3.53
2018-03-11T21:14:13.341Z,0.40
2018-03-11T21:16:41.618Z,0.30
2018-03-11T21:19:09.385Z,0.43
2018-03-11T21:21:37.260Z,0.87
2018-03-11T21:24:05.751Z,0.60
2018-03-11T21:26:33.857Z,0.30
2018-03-11T21:29:01.911Z,1.83
2018-03-11T21:31:30.598Z,1.03
2018-03-11T21:33:58.630Z,0.93
2018-03-11T21:36:27.069Z,0.30
2018-03-11T21:38:54.765Z,1.50
2018-03-11T21:41:22.723Z,0.40
2018-03-11T21:43:50.414Z,0.40
2018-03-11T21:46:18.172Z,1.70
2018-03-11T21:48:46.715Z,0.40
2018-03-11T21:51:14.728Z,0.43
2018-03-11T21:53:42.588Z,0.40
2018-03-11T21:56:10.549Z,0.83
2018-03-11T21:58:38.422Z,0.30
2018-03-11T22:01:06.299Z,0.83
2018-03-11T22:03:34.084Z,0.70
2018-03-11T22:06:01.925Z,2.53
2018-03-11T22:08:29.574Z,0.40
2018-03-11T22:10:57.509Z,0.70
2018-03-11T22:13:25.117Z,0.30
2018-03-11T22:15:52.770Z,0.80
2018-03-11T22:18:20.378Z,0.40
2018-03-11T22:20:48.190Z,0.40
2018-03-11T22:23:17.091Z,0.20
2018-03-11T22:25:44.772Z,0.50
2018-03-11T22:28:12.371Z,0.73
2018-03-11T22:30:40.117Z,0.30
2018-03-11T22:33:07.686Z,0.40
2018-03-11T22:35:35.825Z,3.40
2018-03-11T22:38:03.749Z,2.13
2018-03-11T22:40:31.736Z,1.80
2018-03-11T22:42:59.423Z,0.93
2018-03-11T22:45:27.286Z,0.30
2018-03-11T22:47:55.010Z,0.70
2018-03-11T22:50:22.861Z,0.30
2018-03-11T22:52:50.986Z,0.73
2018-03-11T22:55:18.968Z,1.20
2018-03-11T22:57:47.396Z,0.50
2018-03-11T23:00:15.256Z,0.70
2018-03-11T23:02:43.817Z,0.40
2018-03-11T23:05:12.361Z,0.40
2018-03-11T23:07:40.428Z,0.43
2018-03-11T23:10:09.465Z,2.40
2018-03-11T23:12:37.290Z,0.50
2018-03-11T23:15:05.176Z,2.20
2018-03-11T23:17:32.813Z,0.60
2018-03-11T23:20:00.485Z,0.30
2018-03-11T23:22:28.574Z,0.83
2018-03-11T23:24:56.320Z,1.23
2018-03-11T23:27:24.956Z,0.40
2018-03-11T23:29:52.878Z,0.60
2018-03-11T23:32:20.555Z,0.30
2018-03-11T23:34:48.934Z,0.50
2018-03-11T23:37:16.560Z,0.30
2018-03-11T23:39:44.538Z,0.30
2018-03-11T23:42:12.542Z,0.43
2018-03-11T23:44:40.429Z,0.30
2018-03-11T23:47:08.196Z,2.10
2018-03-11T23:49:36.310Z,0.30
2018-03-11T23:52:04.065Z,2.10
2018-03-11T23:54:32.056Z,0.87
2018-03-11T23:56:59.656Z,0.57
2018-03-11T23:59:28.825Z,0.30
